Time;durP1;ratioP1;P1;durP2;ratioP2;P2;SDS_P1;SDS_P2;PMS_P1;PMS_P2;Temp;Humidity;BMP_temperature;BMP_pressure;BME280_temperature;BME280_humidity;BME280_pressure;Samples;Min_cycle;Max_cycle;Signal;HPM_P1;HPM_P2
2023/05/04 00:01:10;;;;;;;12.43;5.05;;;6.90;99.90;;;;;;5077535;28;20036;-79
2023/05/04 00:03:36;;;;;;;;;;;7.10;99.90;;;;;;5077268;28;20032;-79
2023/05/04 00:06:02;;;;;;;10.35;5.90;;;6.90;99.90;;;;;;5059840;28;20056;-80
2023/05/04 00:08:27;;;;;;;11.30;4.88;;;6.90;99.90;;;;;;5059555;28;20178;-79
2023/05/04 00:10:54;;;;;;;11.83;5.70;;;6.80;99.90;;;;;;5076594;28;20612;-80
2023/05/04 00:13:21;;;;;;;11.20;5.75;;;6.80;99.90;;;;;;5059847;28;20047;-80
2023/05/04 00:15:46;;;;;;;12.23;5.82;;;6.80;99.90;;;;;;5076544;28;20032;-79
2023/05/04 00:18:12;;;;;;;13.57;5.55;;;6.80;99.90;;;;;;5094684;28;20039;-80
2023/05/04 00:20:37;;;;;;;16.10;6.20;;;6.80;99.90;;;;;;5060572;28;20463;-79
2023/05/04 00:23:03;;;;;;;12.63;5.97;;;6.70;99.90;;;;;;5076750;28;20282;-79
2023/05/04 00:25:29;;;;;;;12.85;5.80;;;6.80;99.90;;;;;;5076224;28;20119;-81
2023/05/04 00:27:55;;;;;;;15.82;5.68;;;6.70;99.90;;;;;;5059626;28;20480;-80
2023/05/04 00:30:21;;;;;;;15.60;5.90;;;6.70;99.90;;;;;;5059322;28;20094;-80
2023/05/04 00:32:47;;;;;;;11.90;6.03;;;6.70;99.90;;;;;;5074040;28;20052;-80
2023/05/04 00:35:12;;;;;;;11.73;6.13;;;6.70;99.90;;;;;;5059383;28;20036;-80
2023/05/04 00:37:38;;;;;;;15.33;6.70;;;6.70;99.90;;;;;;5059437;28;20298;-79
2023/05/04 00:40:05;;;;;;;13.43;6.47;;;6.80;99.90;;;;;;5059471;28;20592;-79
2023/05/04 00:42:30;;;;;;;15.30;6.28;;;6.60;99.90;;;;;;5075776;28;20357;-80
2023/05/04 00:44:56;;;;;;;13.13;5.70;;;6.60;99.90;;;;;;5075322;28;20089;-79
2023/05/04 00:47:22;;;;;;;11.60;5.43;;;6.60;99.90;;;;;;5075552;28;20367;-80
2023/05/04 00:49:49;;;;;;;18.13;6.82;;;6.50;99.90;;;;;;5075821;28;20044;-80
2023/05/04 00:52:16;;;;;;;12.93;6.10;;;6.60;99.90;;;;;;5075389;28;20039;-80
2023/05/04 00:54:42;;;;;;;;;;;6.60;99.90;;;;;;5059255;28;20093;-79
2023/05/04 00:57:08;;;;;;;12.32;5.63;;;6.60;99.90;;;;;;5075783;28;20009;-80
2023/05/04 00:59:33;;;;;;;14.77;5.85;;;6.50;99.90;;;;;;5075587;28;20090;-79
2023/05/04 01:01:59;;;;;;;14.03;6.90;;;6.50;99.90;;;;;;5075862;28;20407;-79
2023/05/04 01:04:25;;;;;;;13.23;5.97;;;6.50;99.90;;;;;;5058895;28;20278;-80
2023/05/04 01:06:51;;;;;;;17.63;6.18;;;6.50;99.90;;;;;;5042089;28;20040;-80
2023/05/04 01:09:40;;;;;;;16.93;6.40;;;6.50;99.90;;;;;;5075433;28;20047;-79
2023/05/04 01:12:14;;;;;;;11.30;5.40;;;6.40;99.90;;;;;;5074454;28;20043;-80
2023/05/04 01:14:40;;;;;;;17.60;6.03;;;6.40;99.90;;;;;;5073698;28;20549;-79
2023/05/04 01:17:07;;;;;;;12.77;5.40;;;6.40;99.90;;;;;;5041885;28;20094;-79
2023/05/04 01:19:34;;;;;;;15.52;5.43;;;6.40;99.90;;;;;;5058345;28;20115;-79
2023/05/04 01:22:00;;;;;;;10.75;4.47;;;6.40;99.90;;;;;;5058467;28;20028;-80
2023/05/04 01:24:26;;;;;;;11.00;5.28;;;6.40;99.90;;;;;;5075033;28;20043;-80
2023/05/04 01:27:02;;;;;;;13.18;4.88;;;6.40;99.90;;;;;;5074710;28;20055;-80
2023/05/04 01:29:44;;;;;;;8.80;4.33;;;6.40;99.90;;;;;;5057671;28;20046;-80
2023/05/04 01:32:13;;;;;;;12.30;5.03;;;6.30;99.90;;;;;;5075478;28;20414;-80
2023/05/04 01:34:40;;;;;;;10.23;5.15;;;6.40;99.90;;;;;;5074760;28;20043;-80
2023/05/04 01:37:06;;;;;;;10.45;4.35;;;6.30;99.90;;;;;;5058068;28;20097;-80
2023/05/04 01:39:32;;;;;;;9.50;5.00;;;6.30;99.90;;;;;;5074286;28;20118;-80
2023/05/04 01:41:58;;;;;;;;;;;6.40;99.90;;;;;;5074698;28;20039;-81
2023/05/04 01:44:24;;;;;;;9.20;4.47;;;6.30;99.90;;;;;;5074715;28;19916;-79
2023/05/04 01:46:49;;;;;;;9.82;4.57;;;6.40;99.90;;;;;;5057275;28;20467;-79
2023/05/04 01:49:15;;;;;;;11.47;4.90;;;6.20;99.90;;;;;;5074502;28;20043;-80
2023/05/04 01:51:41;;;;;;;12.63;5.67;;;6.30;99.90;;;;;;5074408;28;20075;-80
2023/05/04 01:54:06;;;;;;;13.00;5.03;;;6.30;99.90;;;;;;5041484;28;20286;-80
2023/05/04 01:56:35;;;;;;;14.27;5.55;;;6.20;99.90;;;;;;5073675;28;20185;-80
2023/05/04 01:59:01;;;;;;;16.27;5.97;;;6.20;99.90;;;;;;5074575;28;20052;-80
2023/05/04 02:01:27;;;;;;;11.93;5.37;;;6.40;99.90;;;;;;5058073;28;20032;-80
2023/05/04 02:03:52;;;;;;;13.10;5.38;;;6.40;99.90;;;;;;5074586;28;20159;-79
2023/05/04 02:06:18;;;;;;;13.43;5.87;;;6.20;99.90;;;;;;5074174;28;20096;-79
2023/05/04 02:08:45;;;;;;;14.33;6.03;;;6.20;99.90;;;;;;5040903;28;20459;-79
2023/05/04 02:11:10;;;;;;;15.88;5.82;;;6.20;99.90;;;;;;5074852;28;20712;-79
2023/05/04 02:13:36;;;;;;;13.53;5.70;;;6.20;99.90;;;;;;5074999;28;20035;-80
2023/05/04 02:16:02;;;;;;;14.52;6.97;;;6.20;99.90;;;;;;5057497;28;20102;-80
2023/05/04 02:18:27;;;;;;;19.00;7.53;;;6.20;99.90;;;;;;5073845;28;20502;-79
2023/05/04 02:20:53;;;;;;;13.07;6.97;;;6.20;99.90;;;;;;5074138;28;20044;-81
2023/05/04 02:23:19;;;;;;;15.05;7.75;;;6.20;99.90;;;;;;5057982;28;20043;-80
2023/05/04 02:25:44;;;;;;;14.98;7.95;;;6.20;99.90;;;;;;5057522;28;20035;-80
2023/05/04 02:28:10;;;;;;;19.00;8.27;;;6.50;99.90;;;;;;5058022;28;20396;-80
2023/05/04 02:30:36;;;;;;;20.80;8.00;;;6.20;99.90;;;;;;5074216;28;20491;-80
2023/05/04 02:33:01;;;;;;;17.73;8.38;;;6.10;99.90;;;;;;5074327;28;20516;-80
2023/05/04 02:35:27;;;;;;;19.03;8.73;;;6.20;99.90;;;;;;5073447;28;20100;-78
2023/05/04 02:37:53;;;;;;;17.88;8.57;;;6.20;99.90;;;;;;5041080;28;20391;-80
2023/05/04 02:40:18;;;;;;;19.63;8.47;;;6.10;99.90;;;;;;5074358;28;20066;-81
2023/05/04 02:42:44;;;;;;;18.33;9.00;;;6.20;99.90;;;;;;5057224;28;20036;-80
2023/05/04 02:45:10;;;;;;;15.68;7.82;;;6.20;99.90;;;;;;5073431;28;20063;-79
2023/05/04 02:47:36;;;;;;;16.92;8.52;;;6.10;99.90;;;;;;5073596;28;20498;-79
2023/05/04 02:50:01;;;;;;;14.07;7.63;;;6.10;99.90;;;;;;5073577;28;20052;-79
2023/05/04 02:52:27;;;;;;;14.18;7.18;;;6.10;99.90;;;;;;5056918;28;20032;-79
2023/05/04 02:54:53;;;;;;;19.57;7.20;;;6.10;99.90;;;;;;5040821;28;20043;-79
2023/05/04 02:57:18;;;;;;;16.70;7.23;;;6.10;99.90;;;;;;5074175;28;20440;-79
2023/05/04 02:59:45;;;;;;;14.23;5.83;;;6.10;99.90;;;;;;5070802;28;20283;-80
2023/05/04 03:02:11;;;;;;;16.05;6.13;;;6.10;99.90;;;;;;5071662;28;20045;-79
2023/05/04 03:04:36;;;;;;;13.25;6.40;;;6.10;99.90;;;;;;5053861;28;20123;-79
2023/05/04 03:07:02;;;;;;;12.17;5.87;;;6.10;99.90;;;;;;5070482;28;20496;-79
2023/05/04 03:09:28;;;;;;;13.37;5.73;;;6.00;99.90;;;;;;5070220;28;20278;-80
2023/05/04 03:11:54;;;;;;;16.00;5.77;;;6.10;99.90;;;;;;5070562;28;20083;-80
2023/05/04 03:14:20;;;;;;;11.18;5.63;;;6.10;99.90;;;;;;5054556;28;20078;-80
2023/05/04 03:16:45;;;;;;;13.45;5.80;;;6.00;99.90;;;;;;5053409;28;20116;-80
2023/05/04 03:19:11;;;;;;;14.32;5.60;;;6.20;99.90;;;;;;5054063;28;20047;-79
2023/05/04 03:21:37;;;;;;;14.93;5.33;;;6.10;99.90;;;;;;5070528;28;20040;-80
2023/05/04 03:24:03;;;;;;;12.17;5.70;;;6.10;99.90;;;;;;5070424;28;20115;-80
2023/05/04 03:26:28;;;;;;;13.50;5.55;;;6.10;99.90;;;;;;5071112;28;20391;-81
2023/05/04 03:28:54;;;;;;;13.30;5.60;;;6.20;99.90;;;;;;5054564;28;20123;-79
2023/05/04 03:31:20;;;;;;;10.63;5.27;;;6.10;99.90;;;;;;5037728;28;20141;-79
2023/05/04 03:33:45;;;;;;;11.68;5.13;;;6.20;99.90;;;;;;5054561;28;20283;-81
2023/05/04 03:36:11;;;;;;;9.73;5.23;;;6.20;99.90;;;;;;5070192;28;20102;-80
2023/05/04 03:38:37;;;;;;;12.20;5.27;;;6.40;99.90;;;;;;5070840;28;20048;-80
2023/05/04 03:41:02;;;;;;;13.30;5.35;;;6.30;99.90;;;;;;5037586;28;20035;-81
2023/05/04 03:43:28;;;;;;;13.83;5.43;;;6.20;99.90;;;;;;5071645;28;20044;-80
2023/05/04 03:45:54;;;;;;;15.33;6.07;;;6.20;99.90;;;;;;5070603;28;20036;-80
2023/05/04 03:48:19;;;;;;;9.97;4.90;;;6.20;99.90;;;;;;5071309;28;20068;-79
2023/05/04 03:50:45;;;;;;;9.13;4.97;;;6.30;99.90;;;;;;5069755;28;20041;-79
2023/05/04 03:53:11;;;;;;;13.60;4.90;;;6.30;99.90;;;;;;5070220;28;20377;-80
2023/05/04 03:55:36;;;;;;;13.73;5.33;;;6.30;99.90;;;;;;5054286;28;20040;-80
2023/05/04 03:58:02;;;;;;;12.97;5.00;;;6.30;99.90;;;;;;5071036;28;20298;-80
2023/05/04 04:00:28;;;;;;;10.07;4.47;;;6.30;99.90;;;;;;5071867;28;20095;-80
2023/05/04 04:02:54;;;;;;;8.55;4.40;;;6.40;99.90;;;;;;5054770;28;20037;-80
2023/05/04 04:05:20;;;;;;;12.27;5.30;;;6.40;99.90;;;;;;5071176;28;20033;-80
2023/05/04 04:07:45;;;;;;;9.25;4.60;;;6.40;99.90;;;;;;5053448;28;20037;-80
2023/05/04 04:10:11;;;;;;;10.33;5.53;;;6.40;99.90;;;;;;5070026;28;20040;-80
2023/05/04 04:12:36;;;;;;;11.87;5.10;;;6.40;99.90;;;;;;5070142;28;20283;-80
2023/05/04 04:15:03;;;;;;;9.90;5.30;;;6.50;99.90;;;;;;5070496;28;20056;-80
2023/05/04 04:17:28;;;;;;;13.75;5.15;;;6.50;99.90;;;;;;5052598;28;20309;-77
2023/05/04 04:19:54;;;;;;;11.60;4.60;;;6.50;99.90;;;;;;5069325;28;20033;-79
2023/05/04 04:22:20;;;;;;;12.07;5.35;;;6.50;99.90;;;;;;5072006;28;20270;-80
2023/05/04 04:24:46;;;;;;;11.80;5.10;;;6.50;99.90;;;;;;5056490;28;20048;-78
2023/05/04 04:27:11;;;;;;;13.47;4.87;;;6.50;99.90;;;;;;5057016;28;20442;-80
2023/05/04 04:29:38;;;;;;;10.00;5.30;;;6.50;99.90;;;;;;5040609;28;20298;-80
2023/05/04 04:32:04;;;;;;;11.82;4.28;;;6.50;99.90;;;;;;5072558;28;20045;-76
2023/05/04 04:34:30;;;;;;;9.73;4.78;;;6.60;99.90;;;;;;5055616;28;20047;-78
2023/05/04 04:36:57;;;;;;;14.88;4.78;;;6.60;99.90;;;;;;5071471;28;20037;-78
2023/05/04 04:39:23;;;;;;;8.52;4.95;;;6.50;99.90;;;;;;5055515;28;20190;-78
2023/05/04 04:41:49;;;;;;;11.95;5.03;;;6.60;99.90;;;;;;5055237;28;20120;-77
2023/05/04 04:44:14;;;;;;;11.18;4.50;;;6.60;99.90;;;;;;5071265;28;20399;-78
2023/05/04 04:46:40;;;;;;;11.48;4.38;;;6.60;99.90;;;;;;5070983;28;20064;-79
2023/05/04 04:49:06;;;;;;;9.00;4.77;;;6.60;99.90;;;;;;5071386;28;20134;-79
2023/05/04 04:51:32;;;;;;;8.38;4.38;;;6.60;99.90;;;;;;5071854;28;20048;-79
2023/05/04 04:53:57;;;;;;;9.10;4.15;;;6.70;99.90;;;;;;5054881;28;20404;-79
2023/05/04 04:56:23;;;;;;;9.43;4.40;;;6.70;99.90;;;;;;5071766;28;20052;-80
2023/05/04 04:58:49;;;;;;;11.40;4.30;;;6.70;99.90;;;;;;5074742;28;20764;-79
2023/05/04 05:01:16;;;;;;;12.90;4.97;;;6.70;99.90;;;;;;5055684;28;20130;-79
2023/05/04 05:03:45;;;;;;;9.38;4.00;;;6.80;99.90;;;;;;5072875;28;20044;-79
2023/05/04 05:06:12;;;;;;;10.68;4.65;;;6.80;99.90;;;;;;5075284;28;20076;-78
2023/05/04 05:08:38;;;;;;;;;;;6.80;99.90;;;;;;5076135;28;20392;-78
2023/05/04 05:11:05;;;;;;;12.18;5.00;;;6.80;99.90;;;;;;5075132;28;20064;-78
2023/05/04 05:13:31;;;;;;;12.68;5.32;;;6.90;99.90;;;;;;5058492;28;20043;-78
2023/05/04 05:15:56;;;;;;;9.95;4.95;;;6.90;99.90;;;;;;5075197;28;20411;-78
2023/05/04 05:18:23;;;;;;;10.20;5.10;;;6.90;99.90;;;;;;5074574;28;20047;-78
2023/05/04 05:20:49;;;;;;;15.00;5.45;;;7.00;99.90;;;;;;5075181;28;20433;-78
2023/05/04 05:23:15;;;;;;;12.15;5.82;;;7.10;99.90;;;;;;5058824;28;20028;-78
2023/05/04 05:25:42;;;;;;;14.05;5.75;;;7.00;99.90;;;;;;5075107;28;20040;-78
2023/05/04 05:28:09;;;;;;;12.38;5.95;;;7.10;99.90;;;;;;5074890;28;20047;-79
2023/05/04 05:30:34;;;;;;;12.68;5.22;;;7.10;99.90;;;;;;5075369;28;20499;-78
2023/05/04 05:33:01;;;;;;;11.90;5.47;;;7.20;99.90;;;;;;5074986;28;20076;-79
2023/05/04 05:35:26;;;;;;;13.75;6.30;;;7.30;99.90;;;;;;5074922;28;20036;-78
2023/05/04 05:37:52;;;;;;;12.57;5.63;;;7.30;99.90;;;;;;5058132;28;20119;-78
2023/05/04 05:40:18;;;;;;;11.20;6.03;;;7.30;99.90;;;;;;5074967;28;20032;-79
2023/05/04 05:42:44;;;;;;;20.65;6.63;;;7.40;99.90;;;;;;5075550;28;20834;-79
2023/05/04 05:45:10;;;;;;;10.55;4.93;;;7.40;99.90;;;;;;5074529;28;20040;-79
2023/05/04 05:47:36;;;;;;;12.55;5.18;;;7.50;99.90;;;;;;5058421;28;20480;-79
2023/05/04 05:50:03;;;;;;;11.15;5.68;;;7.60;99.90;;;;;;5057988;28;20130;-78
2023/05/04 05:52:28;;;;;;;14.68;5.95;;;7.60;99.90;;;;;;5074646;28;20048;-78
2023/05/04 05:54:54;;;;;;;11.23;5.30;;;7.60;99.90;;;;;;5074745;28;20387;-78
2023/05/04 05:57:20;;;;;;;13.73;5.20;;;7.70;99.90;;;;;;5058151;28;20286;-77
2023/05/04 05:59:46;;;;;;;10.87;4.97;;;7.70;99.90;;;;;;5073813;28;20098;-79
2023/05/04 06:02:15;;;;;;;;;;;7.70;99.90;;;;;;5074167;28;20050;-77
2023/05/04 06:04:41;;;;;;;15.27;4.93;;;7.80;99.90;;;;;;5057393;28;19923;-78
2023/05/04 06:07:07;;;;;;;11.32;5.00;;;7.90;99.90;;;;;;5073903;28;20573;-79
2023/05/04 06:09:33;;;;;;;11.20;5.82;;;8.00;99.90;;;;;;5057638;28;20126;-79
2023/05/04 06:12:00;;;;;;;8.98;4.82;;;8.00;99.90;;;;;;5073773;28;20044;-79
2023/05/04 06:14:26;;;;;;;16.05;5.30;;;8.30;99.90;;;;;;5074596;28;20043;-79
2023/05/04 06:16:52;;;;;;;13.33;5.10;;;8.40;99.90;;;;;;5073866;28;20040;-79
2023/05/04 06:19:17;;;;;;;9.60;5.10;;;8.70;99.90;;;;;;5074367;28;20283;-79
2023/05/04 06:21:43;;;;;;;12.65;5.55;;;8.90;99.90;;;;;;5074170;28;20070;-78
2023/05/04 06:24:09;;;;;;;10.50;4.60;;;9.00;99.90;;;;;;5057458;28;20058;-78
2023/05/04 06:26:35;;;;;;;9.40;4.43;;;9.20;99.90;;;;;;5074273;28;20096;-78
2023/05/04 06:29:00;;;;;;;12.60;4.83;;;9.40;99.90;;;;;;5073630;28;20077;-78
2023/05/04 06:31:26;;;;;;;9.93;4.70;;;9.40;99.90;;;;;;5074005;28;20290;-78
2023/05/04 06:33:52;;;;;;;14.75;4.72;;;9.40;99.90;;;;;;5073575;28;20036;-79
2023/05/04 06:36:18;;;;;;;10.73;4.50;;;9.50;99.90;;;;;;5074043;28;20054;-79
2023/05/04 06:38:43;;;;;;;8.85;4.38;;;9.60;99.90;;;;;;5073973;28;20068;-79
2023/05/04 06:41:09;;;;;;;7.43;4.40;;;9.80;99.90;;;;;;5057354;28;20555;-79
2023/05/04 06:43:35;;;;;;;10.20;4.20;;;9.90;99.90;;;;;;5073421;28;20274;-79
2023/05/04 06:46:02;;;;;;;8.60;4.30;;;10.00;99.90;;;;;;5073993;28;20047;-78
2023/05/04 06:48:28;;;;;;;9.57;4.38;;;10.10;99.90;;;;;;5073444;28;20274;-80
2023/05/04 06:50:54;;;;;;;;;;;10.10;99.90;;;;;;5057075;28;20073;-79
2023/05/04 06:53:20;;;;;;;12.57;4.22;;;10.10;99.90;;;;;;5074201;28;19969;-78
2023/05/04 06:55:46;;;;;;;10.65;4.25;;;10.10;99.90;;;;;;5041077;28;20507;-78
2023/05/04 06:58:11;;;;;;;9.00;4.73;;;10.30;99.90;;;;;;5073340;28;20134;-79
2023/05/04 07:00:37;;;;;;;10.10;4.10;;;10.30;99.90;;;;;;5056943;28;20758;-79
2023/05/04 07:03:03;;;;;;;8.70;3.72;;;10.60;99.90;;;;;;5073616;28;20286;-79
2023/05/04 07:05:29;;;;;;;11.00;4.35;;;10.70;99.90;;;;;;5040259;28;20131;-79
2023/05/04 07:07:55;;;;;;;7.63;4.22;;;10.80;99.90;;;;;;5073876;28;20036;-78
2023/05/04 07:10:21;;;;;;;8.05;4.38;;;10.90;99.90;;;;;;5073890;28;20032;-78
2023/05/04 07:12:48;;;;;;;9.52;3.95;;;11.10;99.90;;;;;;5073365;28;20031;-78
2023/05/04 07:15:14;;;;;;;11.40;4.20;;;11.30;99.90;;;;;;5073324;28;20036;-79
2023/05/04 07:17:39;;;;;;;11.38;4.32;;;11.50;99.90;;;;;;5073410;28;20040;-78
2023/05/04 07:20:06;;;;;;;7.88;4.35;;;11.80;99.90;;;;;;5073186;28;20070;-79
2023/05/04 07:22:32;;;;;;;;;;;12.10;99.90;;;;;;5073826;28;20127;-79
2023/05/04 07:24:58;;;;;;;7.28;3.85;;;12.30;99.90;;;;;;5073425;28;19965;-79
2023/05/04 07:27:23;;;;;;;5.80;3.50;;;12.20;99.90;;;;;;5073663;28;20048;-78
2023/05/04 07:29:49;;;;;;;10.15;4.07;;;12.20;99.90;;;;;;5056813;28;20173;-80
2023/05/04 07:32:16;;;;;;;9.48;4.15;;;12.20;99.90;;;;;;5056559;28;20052;-79
2023/05/04 07:34:44;;;;;;;;;;;12.20;99.90;;;;;;5074070;28;20040;-79
2023/05/04 07:37:11;;;;;;;12.70;4.80;;;12.30;99.90;;;;;;5056319;28;19920;-79
2023/05/04 07:39:37;;;;;;;;;;;12.30;99.90;;;;;;5057283;28;20123;-78
2023/05/04 07:42:03;;;;;;;8.50;4.63;;;12.40;99.90;;;;;;5073167;28;20287;-79
2023/05/04 07:44:30;;;;;;;8.55;4.10;;;12.40;99.90;;;;;;5073478;28;20548;-79
2023/05/04 07:46:57;;;;;;;6.72;4.15;;;12.40;99.90;;;;;;5073181;28;20043;-79
2023/05/04 07:49:23;;;;;;;9.95;4.78;;;12.60;99.90;;;;;;5073221;28;20048;-78
2023/05/04 07:51:50;;;;;;;9.20;4.28;;;12.80;99.90;;;;;;5039465;28;21505;-80
2023/05/04 07:54:15;;;;;;;;;;;12.60;99.90;;;;;;5073258;28;20051;-79
2023/05/04 07:56:41;;;;;;;8.45;4.10;;;12.50;99.90;;;;;;5059938;28;20432;-78
2023/05/04 07:59:07;;;;;;;7.37;3.80;;;12.70;99.90;;;;;;5059924;28;20052;-79
2023/05/04 08:01:32;;;;;;;8.27;4.55;;;13.00;99.90;;;;;;5043505;28;20335;-79
2023/05/04 08:03:58;;;;;;;7.78;4.05;;;13.30;99.90;;;;;;5059704;28;20040;-78
2023/05/04 08:06:24;;;;;;;9.75;4.05;;;13.50;99.90;;;;;;5076721;28;20032;-79
2023/05/04 08:08:50;;;;;;;7.72;3.95;;;13.70;99.90;;;;;;5059447;28;20024;-79
2023/05/04 08:11:16;;;;;;;6.88;4.05;;;13.70;99.90;;;;;;5075824;28;20032;-79
2023/05/04 08:13:44;;;;;;;5.65;3.50;;;13.80;99.90;;;;;;5076908;28;20047;-79
2023/05/04 08:16:10;;;;;;;8.52;3.60;;;13.90;99.90;;;;;;5057297;28;20035;-79
2023/05/04 08:18:36;;;;;;;8.98;3.83;;;14.10;99.90;;;;;;5076838;28;20103;-79
2023/05/04 08:21:01;;;;;;;7.38;3.75;;;14.30;99.90;;;;;;5076300;28;20135;-79
2023/05/04 08:23:27;;;;;;;10.30;3.83;;;14.50;99.90;;;;;;5076730;28;20158;-79
2023/05/04 08:25:53;;;;;;;11.20;3.90;;;14.70;99.90;;;;;;5059790;28;20028;-79
2023/05/04 08:28:18;;;;;;;7.32;3.85;;;14.90;99.90;;;;;;5076260;28;20460;-79
2023/05/04 08:30:44;;;;;;;11.35;4.25;;;14.80;99.90;;;;;;5076636;28;20048;-80
2023/05/04 08:33:10;;;;;;;10.07;4.07;;;14.90;99.90;;;;;;5076152;28;20388;-79
2023/05/04 08:35:36;;;;;;;9.57;4.00;;;15.00;99.90;;;;;;5076655;28;20113;-79
2023/05/04 08:38:02;;;;;;;10.70;4.20;;;14.90;99.90;;;;;;5075926;28;20051;-79
2023/05/04 08:40:28;;;;;;;8.30;4.43;;;14.80;99.90;;;;;;5059478;28;20047;-79
2023/05/04 08:42:54;;;;;;;10.55;4.65;;;14.90;99.90;;;;;;5076648;28;20531;-79
2023/05/04 08:45:21;;;;;;;6.15;3.65;;;14.90;99.90;;;;;;5059345;28;20123;-79
2023/05/04 08:47:47;;;;;;;7.25;3.55;;;15.00;99.90;;;;;;5076760;28;20036;-79
2023/05/04 08:50:13;;;;;;;8.57;4.00;;;15.20;99.90;;;;;;5039713;28;20074;-79
2023/05/04 08:52:46;;;;;;;9.57;4.38;;;15.50;99.90;;;;;;5076076;28;20043;-79
2023/05/04 08:55:15;;;;;;;8.88;4.35;;;15.80;99.90;;;;;;5075500;28;20051;-79
2023/05/04 08:57:43;;;;;;;8.88;3.88;;;16.10;99.90;;;;;;5055072;28;20714;-79
2023/05/04 09:00:12;;;;;;;6.90;4.22;;;16.30;99.90;;;;;;5075506;28;20539;-78
2023/05/04 09:02:38;;;;;;;8.02;3.90;;;16.60;99.90;;;;;;5075726;28;20043;-79
2023/05/04 09:05:07;;;;;;;8.45;3.80;;;16.70;99.90;;;;;;5075710;28;20044;-80
2023/05/04 09:07:32;;;;;;;9.23;4.45;;;17.10;99.90;;;;;;5075638;28;20048;-79
2023/05/04 09:09:58;;;;;;;5.95;3.70;;;16.80;99.90;;;;;;5075732;28;20047;-79
2023/05/04 09:12:26;;;;;;;10.55;4.05;;;16.80;99.90;;;;;;5075315;28;20040;-79
2023/05/04 09:14:52;;;;;;;9.10;4.03;;;16.80;99.90;;;;;;5075475;28;20040;-79
2023/05/04 09:17:26;;;;;;;8.27;3.78;;;17.00;99.90;;;;;;5075589;28;20169;-79
2023/05/04 09:20:03;;;;;;;6.43;3.28;;;17.20;99.90;;;;;;5075582;28;20043;-79
2023/05/04 09:22:29;;;;;;;;;;;17.50;99.90;;;;;;5075987;28;20381;-79
2023/05/04 09:25:05;;;;;;;5.75;3.60;;;17.40;99.90;;;;;;5109279;28;19930;-79
2023/05/04 09:27:31;;;;;;;6.53;3.47;;;17.50;99.90;;;;;;5075313;28;20039;-79
2023/05/04 09:29:57;;;;;;;6.65;3.20;;;17.50;99.90;;;;;;5075540;28;20122;-79
2023/05/04 09:32:23;;;;;;;8.02;3.55;;;17.60;99.90;;;;;;5058660;28;20059;-79
2023/05/04 09:34:53;;;;;;;8.55;3.67;;;17.50;99.90;;;;;;5074998;28;20044;-79
2023/05/04 09:37:20;;;;;;;9.68;3.80;;;17.80;99.90;;;;;;5074784;28;20497;-79
2023/05/04 09:39:52;;;;;;;6.70;3.67;;;17.70;99.90;;;;;;5075091;28;20040;-79
2023/05/04 09:42:19;;;;;;;6.88;3.47;;;17.60;99.90;;;;;;5075066;28;20039;-78
2023/05/04 09:44:45;;;;;;;6.60;3.53;;;17.80;99.90;;;;;;5074993;28;20119;-79
2023/05/04 09:47:11;;;;;;;4.43;2.92;;;17.90;99.90;;;;;;5074475;28;20127;-79
2023/05/04 09:49:37;;;;;;;7.97;3.22;;;18.20;99.90;;;;;;5075167;28;20505;-79
2023/05/04 09:52:05;;;;;;;6.72;3.20;;;18.40;99.90;;;;;;5074272;28;20052;-79
2023/05/04 09:54:34;;;;;;;5.57;3.30;;;18.50;99.20;;;;;;5041452;28;20119;-79
2023/05/04 09:57:11;;;;;;;5.28;3.40;;;18.80;98.90;;;;;;5058124;28;20460;-78
2023/05/04 09:59:37;;;;;;;7.72;3.40;;;19.10;99.20;;;;;;5074394;28;20124;-78
2023/05/04 10:02:05;;;;;;;7.50;3.58;;;19.00;97.90;;;;;;5071128;28;20085;-79
2023/05/04 10:04:33;;;;;;;8.07;3.42;;;19.00;98.50;;;;;;5056717;28;20112;-79
2023/05/04 10:07:02;;;;;;;6.88;3.40;;;19.00;97.90;;;;;;5073946;28;20073;-79
2023/05/04 10:09:29;;;;;;;6.00;3.38;;;19.10;98.50;;;;;;5074175;28;20044;-79
2023/05/04 10:12:01;;;;;;;8.18;3.72;;;19.20;98.60;;;;;;5074242;28;20036;-79
2023/05/04 10:14:31;;;;;;;6.95;3.50;;;18.90;97.70;;;;;;5057556;28;20040;-79
2023/05/04 10:17:13;;;;;;;8.35;3.42;;;19.20;97.70;;;;;;5040888;28;20040;-79
2023/05/04 10:20:02;;;;;;;7.50;3.58;;;19.30;98.20;;;;;;5074179;28;20101;-79
2023/05/04 10:22:54;;;;;;;7.32;3.30;;;19.30;97.90;;;;;;5071443;28;20032;-79
2023/05/04 10:25:34;;;;;;;8.70;3.60;;;19.20;98.00;;;;;;5056801;28;20058;-80
2023/05/04 10:28:18;;;;;;;6.60;3.28;;;19.10;98.40;;;;;;5071448;28;20104;-80
2023/05/04 10:30:44;;;;;;;6.78;3.83;;;19.20;97.80;;;;;;5072668;28;20048;-79
2023/05/04 10:33:10;;;;;;;6.20;3.28;;;19.40;98.10;;;;;;5073868;28;20097;-79
2023/05/04 10:35:37;;;;;;;7.03;3.45;;;19.40;98.00;;;;;;5073681;28;20036;-79
2023/05/04 10:38:03;;;;;;;7.85;3.28;;;19.50;97.50;;;;;;5073753;28;20402;-79
2023/05/04 10:40:38;;;;;;;;;;;19.60;97.40;;;;;;5074131;28;20040;-79
2023/05/04 10:43:06;;;;;;;7.43;3.17;;;19.90;97.20;;;;;;5055590;28;19916;-79
2023/05/04 10:45:41;;;;;;;8.38;3.88;;;20.10;97.00;;;;;;5073858;28;20484;-79
2023/05/04 10:48:07;;;;;;;7.97;3.08;;;20.20;96.10;;;;;;5057109;28;20040;-79
2023/05/04 10:50:48;;;;;;;8.82;3.42;;;20.30;96.90;;;;;;5073640;28;20039;-79
2023/05/04 10:53:15;;;;;;;7.93;3.33;;;20.30;96.20;;;;;;5068824;28;20089;-78
2023/05/04 10:55:45;;;;;;;7.95;3.40;;;20.40;96.40;;;;;;5057169;28;20075;-78
2023/05/04 10:58:17;;;;;;;8.85;3.60;;;20.50;96.50;;;;;;5073292;28;20044;-78
2023/05/04 11:00:46;;;;;;;5.40;3.03;;;20.70;96.60;;;;;;5073581;28;20052;-79
2023/05/04 11:03:12;;;;;;;7.88;3.47;;;20.90;96.90;;;;;;5105210;28;20046;-79
2023/05/04 11:05:42;;;;;;;;;;;20.90;95.50;;;;;;5073883;28;20039;-78
2023/05/04 11:08:19;;;;;;;5.60;3.13;;;20.90;95.80;;;;;;5073811;28;20404;-78
2023/05/04 11:11:01;;;;;;;6.70;3.60;;;20.90;95.00;;;;;;5074041;28;20441;-78
2023/05/04 11:13:33;;;;;;;4.45;3.33;;;21.30;95.40;;;;;;5070945;28;20072;-79
2023/05/04 11:16:00;;;;;;;8.27;3.40;;;21.40;95.10;;;;;;5073508;28;20048;-79
2023/05/04 11:18:33;;;;;;;7.80;3.60;;;21.00;94.60;;;;;;5073164;28;20040;-79
2023/05/04 11:20:59;;;;;;;5.22;3.22;;;20.70;95.00;;;;;;5057284;28;20028;-79
2023/05/04 11:23:26;;;;;;;5.68;3.40;;;20.80;95.10;;;;;;5056936;28;20503;-79
2023/05/04 11:25:52;;;;;;;5.30;3.28;;;21.00;94.40;;;;;;5074119;28;20495;-79
2023/05/04 11:28:18;;;;;;;5.15;3.28;;;21.20;94.00;;;;;;5073251;28;20047;-80
2023/05/04 11:30:45;;;;;;;;;;;21.50;94.50;;;;;;5077860;28;20383;-79
2023/05/04 11:33:12;;;;;;;;;;;21.40;94.00;;;;;;5078295;28;19916;-79
2023/05/04 11:35:38;;;;;;;6.22;3.50;;;21.30;94.20;;;;;;5077137;28;19915;-79
2023/05/04 11:38:05;;;;;;;;;;;21.70;94.00;;;;;;5060745;28;20046;-80
2023/05/04 11:40:31;;;;;;;;;;;21.80;94.00;;;;;;5077665;28;20294;-79
2023/05/04 11:42:58;;;;;;;8.27;3.40;;;22.20;93.40;;;;;;5077255;28;19915;-80
2023/05/04 11:45:29;;;;;;;4.95;2.95;;;22.00;93.10;;;;;;5076840;28;20072;-79
2023/05/04 11:47:56;;;;;;;4.22;3.05;;;22.20;93.30;;;;;;5077285;28;20044;-80
2023/05/04 11:50:24;;;;;;;7.45;3.55;;;22.10;92.90;;;;;;5077052;28;20075;-79
2023/05/04 11:52:49;;;;;;;5.68;3.45;;;22.10;93.10;;;;;;5076968;28;20047;-79
2023/05/04 11:55:26;;;;;;;;;;;22.40;92.30;;;;;;5077052;28;20505;-78
2023/05/04 11:58:02;;;;;;;8.13;3.33;;;22.00;92.40;;;;;;5105749;28;19920;-79
2023/05/04 12:00:37;;;;;;;5.32;3.40;;;22.20;92.30;;;;;;5076298;28;20051;-79
2023/05/04 12:03:04;;;;;;;6.85;3.63;;;21.90;92.40;;;;;;5060414;28;20123;-78
2023/05/04 12:05:31;;;;;;;6.30;3.33;;;22.40;91.70;;;;;;5076164;28;20071;-79
2023/05/04 12:07:57;;;;;;;7.95;3.72;;;22.70;92.10;;;;;;5077173;28;20380;-79
2023/05/04 12:10:40;;;;;;;;;;;22.70;91.90;;;;;;5077083;28;20044;-79
2023/05/04 12:13:16;;;;;;;6.90;3.67;;;22.80;91.80;;;;;;5074309;28;19989;-78
2023/05/04 12:15:42;;;;;;;7.50;3.67;;;23.10;91.50;;;;;;5071264;28;20123;-77
2023/05/04 12:18:18;;;;;;;8.30;3.63;;;23.20;91.00;;;;;;5076086;28;20035;-78
2023/05/04 12:20:44;;;;;;;;;;;23.20;91.70;;;;;;5059753;28;20034;-79
2023/05/04 12:23:10;;;;;;;6.85;3.83;;;22.90;91.10;;;;;;5076252;28;20371;-78
2023/05/04 12:25:36;;;;;;;6.28;3.75;;;22.80;90.90;;;;;;5075894;28;20028;-78
2023/05/04 12:28:02;;;;;;;;;;;22.50;91.00;;;;;;5059876;28;20044;-79
2023/05/04 12:30:27;;;;;;;6.72;3.65;;;22.80;90.90;;;;;;5076050;28;19980;-78
2023/05/04 12:32:53;;;;;;;;;;;22.60;90.40;;;;;;5059903;28;20047;-78
2023/05/04 12:35:18;;;;;;;6.97;3.40;;;22.50;90.60;;;;;;5076521;28;19998;-80
2023/05/04 12:37:44;;;;;;;;;;;22.60;91.10;;;;;;5059946;28;20043;-79
2023/05/04 12:40:11;;;;;;;9.98;3.83;;;22.50;90.50;;;;;;5076136;28;19922;-79
2023/05/04 12:42:37;;;;;;;5.47;3.50;;;22.60;90.70;;;;;;5075686;28;20040;-79
2023/05/04 12:45:03;;;;;;;;;;;22.70;91.20;;;;;;5059962;28;20044;-78
2023/05/04 12:47:29;;;;;;;8.18;3.60;;;22.50;90.90;;;;;;5076095;28;19923;-78
2023/05/04 12:49:54;;;;;;;;;;;22.60;91.00;;;;;;5060029;28;20028;-78
2023/05/04 12:52:20;;;;;;;8.23;4.25;;;22.70;90.70;;;;;;5059234;28;19920;-78